createdAt,value
2019-02-25T00:01:49.324Z,171.10
2019-02-25T00:06:00.321Z,171.30
2019-02-25T00:10:11.508Z,173.73
2019-02-25T00:14:22.785Z,183.73
2019-02-25T00:18:33.807Z,170.40
2019-02-25T00:22:44.793Z,169.70
2019-02-25T00:26:55.366Z,169.93
2019-02-25T00:31:06.419Z,170.50
2019-02-25T00:35:17.408Z,168.87
2019-02-25T00:39:28.533Z,170.57
2019-02-25T00:43:39.640Z,167.17
2019-02-25T00:47:50.847Z,171.47
2019-02-25T00:52:01.990Z,171.63
2019-02-25T00:56:12.984Z,178.10
2019-02-25T01:00:25.775Z,178.00
2019-02-25T01:04:37.705Z,176.07
2019-02-25T01:08:48.727Z,178.70
2019-02-25T01:12:59.918Z,176.00
2019-02-25T01:17:10.914Z,169.23
2019-02-25T01:21:22.022Z,174.97
2019-02-25T01:25:32.704Z,172.20
2019-02-25T01:29:44.184Z,172.40
2019-02-25T01:33:54.767Z,174.43
2019-02-25T01:38:06.293Z,168.30
2019-02-25T01:42:17.465Z,165.90
2019-02-25T01:46:28.567Z,170.63
2019-02-25T01:50:39.566Z,166.70
2019-02-25T01:54:50.568Z,169.30
2019-02-25T01:59:01.671Z,168.13
2019-02-25T02:03:12.675Z,168.87
2019-02-25T02:07:23.701Z,171.63
2019-02-25T02:11:34.714Z,170.23
2019-02-25T02:15:45.943Z,172.00
2019-02-25T02:19:57.049Z,171.77
2019-02-25T02:24:08.159Z,167.27
2019-02-25T02:28:19.283Z,181.13
2019-02-25T02:32:30.421Z,178.20
2019-02-25T02:36:41.552Z,171.00
2019-02-25T02:40:53.457Z,170.47
2019-02-25T02:45:07.675Z,172.53
2019-02-25T02:49:18.725Z,173.97
2019-02-25T02:53:29.738Z,172.33
2019-02-25T02:57:39.766Z,172.00
2019-02-25T03:01:50.876Z,169.28
2019-02-25T03:06:02.004Z,170.40
2019-02-25T03:10:15.146Z,167.17
2019-02-25T03:14:26.330Z,170.80
2019-02-25T03:18:37.337Z,177.13
2019-02-25T03:22:48.874Z,177.37
2019-02-25T03:26:59.883Z,177.67
2019-02-25T03:31:10.886Z,166.73
2019-02-25T03:35:21.873Z,167.43
2019-02-25T03:39:32.913Z,167.63
2019-02-25T03:43:44.043Z,175.17
2019-02-25T03:47:55.084Z,170.03
2019-02-25T03:52:06.083Z,170.60
2019-02-25T03:56:17.090Z,168.17
2019-02-25T04:00:29.609Z,167.07
2019-02-25T04:04:41.224Z,173.67
2019-02-25T04:08:52.309Z,168.90
2019-02-25T04:13:22.771Z,167.73
2019-02-25T04:17:33.850Z,180.13
2019-02-25T04:21:43.894Z,168.13
2019-02-25T04:25:54.973Z,171.43
2019-02-25T04:30:11.896Z,170.03
2019-02-25T04:34:23.021Z,169.47
2019-02-25T04:38:34.136Z,175.80
2019-02-25T04:42:45.265Z,166.07
2019-02-25T04:46:56.363Z,170.17
2019-02-25T04:51:07.473Z,167.30
2019-02-25T04:55:18.640Z,171.80
2019-02-25T04:59:29.771Z,170.10
2019-02-25T05:03:40.868Z,168.30
2019-02-25T05:07:51.865Z,169.67
2019-02-25T05:12:02.964Z,170.13
2019-02-25T05:16:14.171Z,169.33
2019-02-25T05:20:26.645Z,172.57
2019-02-25T05:24:37.713Z,167.87
2019-02-25T05:28:48.735Z,166.97
2019-02-25T05:32:59.720Z,166.83
2019-02-25T05:37:10.720Z,168.67
2019-02-25T05:41:21.853Z,168.07
2019-02-25T05:45:32.841Z,165.83
2019-02-25T05:49:43.861Z,166.77
2019-02-25T05:53:54.985Z,170.33
2019-02-25T05:58:05.998Z,166.90
2019-02-25T06:02:17.003Z,165.17
2019-02-25T06:06:28.323Z,163.33
2019-02-25T06:10:39.285Z,161.63
2019-02-25T06:14:50.270Z,169.80
2019-02-25T06:19:01.372Z,164.93
2019-02-25T06:23:13.145Z,178.63
2019-02-25T06:27:30.622Z,169.27
2019-02-25T06:31:36.904Z,167.68
2019-02-25T06:35:47.995Z,165.73
2019-02-25T06:39:59.083Z,164.87
2019-02-25T06:44:10.925Z,166.50
2019-02-25T06:48:21.915Z,170.07
2019-02-25T06:52:33.104Z,170.70
2019-02-25T06:56:44.100Z,170.43
2019-02-25T07:00:55.175Z,169.47
2019-02-25T07:05:09.749Z,167.63
2019-02-25T07:09:38.902Z,167.93
2019-02-25T07:13:54.477Z,170.70
2019-02-25T07:18:07.203Z,173.13
2019-02-25T07:22:19.862Z,166.67
2019-02-25T07:26:35.307Z,169.75
2019-02-25T07:30:47.982Z,164.17
2019-02-25T07:35:02.058Z,171.83
2019-02-25T07:39:17.565Z,169.27
2019-02-25T07:43:30.305Z,168.10
2019-02-25T07:47:42.959Z,184.23
2019-02-25T07:52:04.199Z,173.53
2019-02-25T07:56:22.563Z,173.87
2019-02-25T08:00:44.338Z,175.73
2019-02-25T08:05:05.930Z,172.40
2019-02-25T08:09:34.903Z,173.03
2019-02-25T08:13:53.548Z,175.90
2019-02-25T08:18:06.289Z,173.83
2019-02-25T08:22:22.959Z,171.37
2019-02-25T08:26:38.313Z,177.57
2019-02-25T08:31:09.339Z,184.70
2019-02-25T08:35:47.756Z,193.23
2019-02-25T08:40:18.600Z,193.23
2019-02-25T08:44:41.157Z,176.70
2019-02-25T08:48:54.119Z,177.80
2019-02-25T08:53:05.123Z,184.03
2019-02-25T08:57:16.117Z,194.07
2019-02-25T09:01:27.224Z,176.77
2019-02-25T09:05:38.604Z,176.43
2019-02-25T09:09:49.717Z,183.70
2019-02-25T09:14:00.815Z,178.80
2019-02-25T09:18:11.835Z,184.93
2019-02-25T09:22:22.959Z,181.13
2019-02-25T09:26:34.064Z,187.33
2019-02-25T09:30:45.347Z,187.30
2019-02-25T09:34:56.500Z,184.97
2019-02-25T09:39:10.742Z,183.17
2019-02-25T09:43:22.135Z,184.40
2019-02-25T09:47:33.893Z,184.87
2019-02-25T09:51:46.176Z,190.20
2019-02-25T09:55:57.222Z,189.60
2019-02-25T10:00:18.595Z,185.13
2019-02-25T10:04:30.483Z,186.23
2019-02-25T10:08:41.645Z,189.20
2019-02-25T10:12:52.789Z,190.57
2019-02-25T10:17:03.793Z,189.57
2019-02-25T10:21:14.938Z,190.00
2019-02-25T10:25:25.952Z,190.30
2019-02-25T10:29:37.076Z,188.93
2019-02-25T10:33:48.172Z,188.37
2019-02-25T10:38:00.946Z,190.67
2019-02-25T10:42:13.314Z,187.60
2019-02-25T10:46:24.423Z,187.77
2019-02-25T10:50:36.037Z,192.53
2019-02-25T10:54:48.243Z,187.70
2019-02-25T10:59:01.912Z,192.13
2019-02-25T11:03:15.147Z,207.63
2019-02-25T11:07:25.693Z,190.43
2019-02-25T11:11:38.490Z,186.10
2019-02-25T11:15:49.613Z,194.53
2019-02-25T11:20:02.798Z,193.27
2019-02-25T11:24:14.450Z,188.40
2019-02-25T11:28:26.247Z,190.73
2019-02-25T11:32:37.673Z,188.70
2019-02-25T11:36:50.478Z,190.65
2019-02-25T11:41:02.028Z,189.25
2019-02-25T11:45:20.855Z,187.40
2019-02-25T11:49:30.891Z,194.37
2019-02-25T11:53:42.062Z,191.03
2019-02-25T11:57:53.199Z,195.87
2019-02-25T12:02:04.324Z,196.25
2019-02-25T12:06:15.336Z,189.72
2019-02-25T12:10:26.453Z,193.47
2019-02-25T12:14:37.708Z,187.68
2019-02-25T12:18:48.846Z,194.80
2019-02-25T12:22:59.881Z,191.15
2019-02-25T12:27:11.875Z,191.05
2019-02-25T12:31:23.082Z,195.60
2019-02-25T12:35:34.204Z,192.17
2019-02-25T12:39:45.415Z,191.03
2019-02-25T12:43:56.550Z,191.55
2019-02-25T12:48:07.839Z,202.35
2019-02-25T12:52:18.954Z,191.80
2019-02-25T12:56:30.069Z,186.87
2019-02-25T13:00:43.375Z,192.80
2019-02-25T13:04:54.455Z,186.63
2019-02-25T13:09:08.654Z,187.33
2019-02-25T13:13:19.678Z,190.23
2019-02-25T13:17:30.696Z,187.63
2019-02-25T13:21:41.816Z,187.43
2019-02-25T13:25:55.456Z,184.00
2019-02-25T13:30:08.791Z,185.73
2019-02-25T13:34:19.937Z,191.70
2019-02-25T13:38:31.160Z,190.03
2019-02-25T13:42:42.255Z,188.07
2019-02-25T13:46:53.689Z,204.40
2019-02-25T13:51:07.728Z,190.80
2019-02-25T13:55:21.921Z,189.43
2019-02-25T13:59:34.803Z,191.17
2019-02-25T14:03:46.026Z,188.77
2019-02-25T14:07:58.166Z,191.87
2019-02-25T14:12:09.318Z,184.87
2019-02-25T14:16:20.532Z,192.23
2019-02-25T14:20:31.724Z,185.53
2019-02-25T14:24:42.736Z,185.23
2019-02-25T14:28:53.811Z,199.73
2019-02-25T14:33:07.765Z,188.70
2019-02-25T14:37:20.469Z,186.57
2019-02-25T14:41:31.464Z,185.77
2019-02-25T14:45:46.196Z,182.90
2019-02-25T14:49:55.487Z,186.93
2019-02-25T14:54:06.591Z,180.03
2019-02-25T14:58:17.830Z,186.67
2019-02-25T15:02:28.842Z,186.07
2019-02-25T15:06:40.049Z,180.00
2019-02-25T15:10:51.213Z,181.47
2019-02-25T15:15:03.115Z,183.80
2019-02-25T15:19:15.455Z,179.40
2019-02-25T15:23:27.978Z,181.40
2019-02-25T15:27:39.570Z,186.53
2019-02-25T15:31:50.925Z,184.83
2019-02-25T15:36:03.927Z,183.93
2019-02-25T15:40:19.924Z,186.83
2019-02-25T15:44:28.995Z,188.13
2019-02-25T15:48:41.553Z,191.33
2019-02-25T15:52:53.163Z,185.30
2019-02-25T15:57:04.349Z,184.53
2019-02-25T16:01:16.298Z,185.63
2019-02-25T16:05:29.719Z,182.95
2019-02-25T16:09:41.465Z,183.60
2019-02-25T16:13:53.492Z,179.93
2019-02-25T16:18:05.449Z,182.40
2019-02-25T16:22:16.484Z,180.37
2019-02-25T16:26:27.490Z,182.03
2019-02-25T16:30:42.916Z,181.63
2019-02-25T16:34:55.987Z,183.40
2019-02-25T16:39:09.638Z,182.87
2019-02-25T16:43:21.361Z,182.83
2019-02-25T16:47:35.511Z,183.00
2019-02-25T16:51:45.258Z,183.73
2019-02-25T16:55:57.612Z,184.27
2019-02-25T17:00:13.933Z,190.27
2019-02-25T17:04:27.194Z,185.40
2019-02-25T17:08:37.835Z,186.33
2019-02-25T17:12:50.034Z,181.47
2019-02-25T17:17:01.573Z,180.60
2019-02-25T17:21:12.571Z,192.73
